Time;durP1;ratioP1;P1;durP2;ratioP2;P2;SDS_P1;SDS_P2;PMS_P1;PMS_P2;Temp;Humidity;BMP_temperature;BMP_pressure;BME280_temperature;BME280_humidity;BME280_pressure;Samples;Min_cycle;Max_cycle;Signal;HPM_P1;HPM_P2
2021/08/26 00:07:23;;;;;;;4.57;1.58;;;;;15.70;99628.00;;;;5128923;27;20073;-77
2021/08/26 00:09:50;;;;;;;6.78;1.95;;;;;15.70;99612.00;;;;5129618;27;20034;-77
2021/08/26 00:12:20;;;;;;;2.55;2.15;;;;;15.60;99584.00;;;;5129075;27;20478;-77
2021/08/26 00:14:47;;;;;;;2.60;1.83;;;;;15.60;99622.00;;;;5129361;27;20069;-77
2021/08/26 00:17:14;;;;;;;2.20;1.67;;;;;15.40;99655.00;;;;5129134;27;20027;-76
2021/08/26 00:19:42;;;;;;;7.28;1.65;;;;;15.40;99680.00;;;;5130125;27;20377;-77
2021/08/26 00:22:09;;;;;;;3.33;2.40;;;;;15.50;99690.00;;;;5129526;27;20072;-77
2021/08/26 00:24:37;;;;;;;5.15;2.13;;;;;15.50;99693.00;;;;5128004;27;20147;-77
2021/08/26 00:27:05;;;;;;;2.92;1.65;;;;;15.50;99712.00;;;;5129480;27;20019;-77
2021/08/26 00:29:32;;;;;;;7.05;1.95;;;;;15.60;99734.00;;;;5129186;27;20110;-75
2021/08/26 00:31:59;;;;;;;3.20;1.75;;;;;15.60;99698.00;;;;5129489;27;20031;-77
2021/08/26 00:34:25;;;;;;;6.20;1.77;;;;;15.60;99695.00;;;;5128707;27;20434;-77
2021/08/26 00:36:52;;;;;;;3.58;1.48;;;;;15.60;99706.00;;;;5128508;27;20038;-77
2021/08/26 00:39:18;;;;;;;3.67;1.75;;;;;15.60;99693.00;;;;5128624;27;20031;-78
2021/08/26 00:41:45;;;;;;;4.00;1.67;;;;;15.50;99698.00;;;;5128802;27;20027;-77
2021/08/26 00:44:11;;;;;;;5.65;1.90;;;;;15.50;99739.00;;;;5127414;27;20019;-77
2021/08/26 00:46:39;;;;;;;5.05;1.98;;;;;15.50;99730.00;;;;5129038;27;20024;-77
2021/08/26 00:49:12;;;;;;;4.38;2.05;;;;;15.50;99707.00;;;;5128807;27;20110;-77
2021/08/26 00:51:40;;;;;;;3.40;3.10;;;;;15.50;99738.00;;;;5128177;27;20158;-78
2021/08/26 00:54:08;;;;;;;6.15;3.40;;;;;15.50;99810.00;;;;5128446;27;20039;-77
2021/08/26 00:56:35;;;;;;;4.97;2.75;;;;;15.50;99859.00;;;;5128864;27;20383;-76
2021/08/26 00:59:05;;;;;;;5.13;2.95;;;;;15.40;99851.00;;;;5128545;27;20042;-77
2021/08/26 01:01:46;;;;;;;6.30;4.55;;;;;15.20;99830.00;;;;5128558;27;20553;-76
2021/08/26 01:04:31;;;;;;;7.45;3.47;;;;;15.10;99773.00;;;;5128340;27;20042;-76
2021/08/26 01:07:10;;;;;;;7.13;3.30;;;;;14.90;99776.00;;;;5127566;27;20045;-77
2021/08/26 01:09:50;;;;;;;5.78;3.22;;;;;14.90;99791.00;;;;5128773;27;20493;-76
2021/08/26 01:12:23;;;;;;;12.95;2.95;;;;;14.90;99804.00;;;;5129680;27;20052;-77
2021/08/26 01:14:51;;;;;;;4.78;4.00;;;;;14.90;99789.00;;;;5128682;27;20048;-77
2021/08/26 01:17:21;;;;;;;5.28;3.95;;;;;14.90;99764.00;;;;5127858;27;20031;-77
2021/08/26 01:19:49;;;;;;;7.18;4.55;;;;;14.90;99740.00;;;;5128137;27;20405;-76
2021/08/26 01:22:23;;;;;;;5.18;4.40;;;;;14.90;99724.00;;;;5128168;27;20031;-78
2021/08/26 01:25:05;;;;;;;4.72;3.28;;;;;14.90;99726.00;;;;5127144;27;20110;-78
2021/08/26 01:27:56;;;;;;;3.50;3.13;;;;;14.90;99743.00;;;;5126955;27;20427;-78
2021/08/26 01:30:28;;;;;;;2.83;2.45;;;;;14.90;99767.00;;;;5127778;27;20037;-79
2021/08/26 01:32:58;;;;;;;2.33;1.60;;;;;14.90;99744.00;;;;5128005;27;20031;-78
2021/08/26 01:35:26;;;;;;;3.28;1.60;;;;;14.90;99763.00;;;;5128479;27;20031;-78
2021/08/26 01:37:53;;;;;;;0.88;0.88;;;;;14.90;99768.00;;;;5127200;27;20122;-78
2021/08/26 01:40:34;;;;;;;3.50;1.15;;;;;14.90;99782.00;;;;5127838;27;20030;-78
2021/08/26 01:43:21;;;;;;;1.83;1.48;;;;;15.00;99824.00;;;;5127737;27;20023;-79
2021/08/26 01:45:48;;;;;;;5.63;3.50;;;;;15.00;99789.00;;;;5127889;27;20031;-78
2021/08/26 01:48:16;;;;;;;6.22;4.00;;;;;15.00;99808.00;;;;5127890;27;20488;-78
2021/08/26 01:50:47;;;;;;;7.82;4.75;;;;;15.00;99829.00;;;;5127658;27;20038;-78
2021/08/26 01:53:17;;;;;;;;;;;;;15.00;99857.00;;;;5129051;27;20035;-78
2021/08/26 01:55:45;;;;;;;7.53;2.90;;;;;14.90;99829.00;;;;5128217;27;19960;-77
2021/08/26 01:58:15;;;;;;;4.68;2.83;;;;;14.90;99817.00;;;;5127260;27;20075;-78
2021/08/26 02:00:42;;;;;;;7.30;3.70;;;;;14.80;99808.00;;;;5127660;27;20045;-77
2021/08/26 02:03:08;;;;;;;7.00;4.05;;;;;14.80;99833.00;;;;5127599;27;20038;-77
2021/08/26 02:05:35;;;;;;;7.72;4.45;;;;;14.80;99846.00;;;;5127450;27;20501;-77
2021/08/26 02:08:02;;;;;;;9.85;4.18;;;;;14.80;99791.00;;;;5127559;27;20127;-77
2021/08/26 02:10:29;;;;;;;8.13;4.57;;;;;14.90;99832.00;;;;5127098;27;20070;-78
2021/08/26 02:12:56;;;;;;;13.10;5.65;;;;;14.80;99813.00;;;;5127454;27;20027;-77
2021/08/26 02:15:22;;;;;;;15.98;6.20;;;;;14.90;99836.00;;;;5128392;27;20027;-77
2021/08/26 02:17:49;;;;;;;12.30;7.47;;;;;14.90;99831.00;;;;5126923;27;20034;-77
2021/08/26 02:20:16;;;;;;;12.95;7.47;;;;;14.80;99839.00;;;;5130975;27;20027;-77
2021/08/26 02:22:42;;;;;;;13.68;7.50;;;;;14.90;99843.00;;;;5131547;27;20046;-78
2021/08/26 02:25:12;;;;;;;26.40;9.85;;;;;14.90;99823.00;;;;5132140;27;20393;-77
2021/08/26 02:27:39;;;;;;;20.58;8.70;;;;;14.90;99838.00;;;;5134932;27;20026;-76
2021/08/26 02:30:10;;;;;;;16.20;8.68;;;;;14.90;99852.00;;;;5137904;27;20039;-77
2021/08/26 02:32:37;;;;;;;12.32;7.70;;;;;14.80;99826.00;;;;5138211;27;20027;-78
2021/08/26 02:35:05;;;;;;;15.43;8.68;;;;;14.90;99843.00;;;;5132437;27;20114;-77
2021/08/26 02:37:32;;;;;;;17.45;9.68;;;;;14.90;99868.00;;;;5131537;27;20035;-78
2021/08/26 02:39:59;;;;;;;18.33;8.40;;;;;14.90;99840.00;;;;5131515;27;20031;-78
2021/08/26 02:42:25;;;;;;;19.80;11.43;;;;;14.90;99867.00;;;;5131722;27;20031;-78
2021/08/26 02:44:52;;;;;;;19.63;11.52;;;;;14.90;99800.00;;;;5131509;27;20534;-79
2021/08/26 02:47:19;;;;;;;23.15;11.18;;;;;14.90;99795.00;;;;5130244;27;20042;-77
2021/08/26 02:49:45;;;;;;;16.52;10.95;;;;;14.90;99787.00;;;;5131380;27;20031;-77
2021/08/26 02:52:12;;;;;;;16.98;10.73;;;;;14.90;99830.00;;;;5131452;27;20438;-78
2021/08/26 02:54:39;;;;;;;23.92;13.15;;;;;15.00;99885.00;;;;5131527;27;20367;-78
2021/08/26 02:57:06;;;;;;;24.35;13.43;;;;;15.00;99902.00;;;;5131011;27;20061;-78
2021/08/26 02:59:32;;;;;;;23.70;14.02;;;;;15.00;99894.00;;;;5130604;27;20031;-77
2021/08/26 03:01:59;;;;;;;25.90;14.82;;;;;15.00;99899.00;;;;5131411;27;20042;-78
2021/08/26 03:04:26;;;;;;;28.20;14.55;;;;;15.00;99916.00;;;;5130897;27;20020;-78
2021/08/26 03:06:52;;;;;;;19.88;13.43;;;;;15.00;99913.00;;;;5130797;27;20553;-80
2021/08/26 03:09:19;;;;;;;25.20;13.90;;;;;15.00;99903.00;;;;5131221;27;20110;-77
2021/08/26 03:11:45;;;;;;;26.10;14.38;;;;;15.00;99891.00;;;;5131021;27;20034;-78
2021/08/26 03:14:12;;;;;;;20.13;12.88;;;;;15.00;99893.00;;;;5131099;27;20027;-78
2021/08/26 03:16:38;;;;;;;24.38;13.45;;;;;15.00;99908.00;;;;5130648;27;20062;-77
2021/08/26 03:19:05;;;;;;;20.50;12.82;;;;;15.00;99912.00;;;;5129617;27;20038;-77
2021/08/26 03:21:32;;;;;;;21.63;13.68;;;;;15.00;99949.00;;;;5130585;27;20019;-77
2021/08/26 03:23:58;;;;;;;19.50;12.25;;;;;15.00;99935.00;;;;5130909;27;20059;-77
2021/08/26 03:26:25;;;;;;;21.33;12.57;;;;;15.00;99925.00;;;;5131265;27;20023;-77
2021/08/26 03:28:51;;;;;;;19.13;13.27;;;;;15.00;99941.00;;;;5130611;27;20513;-78
2021/08/26 03:31:18;;;;;;;21.20;13.43;;;;;15.00;99894.00;;;;5130297;27;20027;-77
2021/08/26 03:33:45;;;;;;;21.52;12.30;;;;;15.00;99885.00;;;;5130394;27;20015;-78
2021/08/26 03:36:12;;;;;;;18.20;12.68;;;;;15.00;99887.00;;;;5130992;27;20046;-77
2021/08/26 03:38:40;;;;;;;13.68;8.07;;;;;15.00;99864.00;;;;5130478;27;20670;-78
2021/08/26 03:41:07;;;;;;;10.23;5.35;;;;;15.00;99868.00;;;;5130222;27;20019;-78
2021/08/26 03:43:33;;;;;;;6.15;4.55;;;;;15.00;99878.00;;;;5130159;27;20406;-79
2021/08/26 03:46:00;;;;;;;4.30;3.50;;;;;14.90;99891.00;;;;5130030;27;20493;-77
2021/08/26 03:48:27;;;;;;;4.00;3.20;;;;;14.90;99893.00;;;;5130371;27;20019;-77
2021/08/26 03:50:53;;;;;;;5.28;2.90;;;;;14.90;99858.00;;;;5130216;27;20525;-78
2021/08/26 03:53:20;;;;;;;9.13;3.08;;;;;14.90;99846.00;;;;5130554;27;20068;-79
2021/08/26 03:55:47;;;;;;;4.20;2.70;;;;;15.00;99848.00;;;;5129866;27;20542;-78
2021/08/26 03:58:13;;;;;;;6.07;3.00;;;;;15.00;99885.00;;;;5129432;27;20042;-77
2021/08/26 04:00:40;;;;;;;5.05;2.13;;;;;15.00;99875.00;;;;5129792;27;20068;-78
2021/08/26 04:03:06;;;;;;;5.20;2.10;;;;;15.00;99892.00;;;;5129778;27;20054;-79
2021/08/26 04:05:33;;;;;;;5.40;2.15;;;;;15.00;99921.00;;;;5129716;27;20038;-79
2021/08/26 04:07:59;;;;;;;4.22;2.10;;;;;15.00;99933.00;;;;5129526;27;20112;-78
2021/08/26 04:10:26;;;;;;;3.03;2.13;;;;;15.00;99958.00;;;;5128990;27;20039;-77
2021/08/26 04:12:53;;;;;;;2.80;1.80;;;;;15.00;99930.00;;;;5129428;27;20062;-78
2021/08/26 04:15:19;;;;;;;3.17;1.70;;;;;15.00;99918.00;;;;5129529;27;20027;-78
2021/08/26 04:17:46;;;;;;;3.47;0.98;;;;;14.70;99869.00;;;;5129605;27;20494;-78
2021/08/26 04:20:13;;;;;;;0.70;0.70;;;;;14.50;99901.00;;;;5129866;27;20504;-77
2021/08/26 04:22:39;;;;;;;5.13;0.88;;;;;14.50;99938.00;;;;5128214;27;20030;-78
2021/08/26 04:25:07;;;;;;;0.70;0.65;;;;;14.40;99936.00;;;;5129197;27;20063;-78
2021/08/26 04:27:34;;;;;;;0.93;0.55;;;;;14.30;99933.00;;;;5128673;27;20030;-77
2021/08/26 04:30:00;;;;;;;0.77;0.68;;;;;14.30;99934.00;;;;5129956;27;20026;-77
2021/08/26 04:32:27;;;;;;;2.33;0.90;;;;;14.30;99933.00;;;;5129213;27;20027;-79
2021/08/26 04:34:54;;;;;;;1.00;0.50;;;;;14.20;99942.00;;;;5129179;27;20520;-79
2021/08/26 04:37:21;;;;;;;0.52;0.52;;;;;14.20;99963.00;;;;5128613;27;20035;-78
2021/08/26 04:39:47;;;;;;;0.93;0.70;;;;;14.20;99968.00;;;;5128939;27;20024;-78
2021/08/26 04:42:14;;;;;;;1.85;0.60;;;;;14.10;99953.00;;;;5128224;27;20023;-77
2021/08/26 04:44:40;;;;;;;2.50;0.90;;;;;14.20;99930.00;;;;5129270;27;20023;-77
2021/08/26 04:47:07;;;;;;;0.60;0.60;;;;;14.10;99951.00;;;;5129502;27;20023;-78
2021/08/26 04:49:34;;;;;;;2.00;0.60;;;;;14.10;99935.00;;;;5129258;27;20023;-77
2021/08/26 04:52:00;;;;;;;1.25;0.70;;;;;14.00;99969.00;;;;5127108;27;20027;-77
2021/08/26 04:54:27;;;;;;;0.55;0.52;;;;;14.00;99968.00;;;;5129022;27;20119;-76
2021/08/26 04:56:53;;;;;;;2.33;0.70;;;;;14.00;99946.00;;;;5129013;27;20038;-77
2021/08/26 04:59:20;;;;;;;0.70;0.50;;;;;14.00;99910.00;;;;5128537;27;20110;-78
2021/08/26 05:01:46;;;;;;;0.45;0.40;;;;;13.90;99913.00;;;;5128713;27;20059;-77
2021/08/26 05:04:13;;;;;;;2.08;0.45;;;;;13.80;99948.00;;;;5128152;27;20027;-78
2021/08/26 05:06:40;;;;;;;3.20;0.63;;;;;13.90;99948.00;;;;5128168;27;20427;-78
2021/08/26 05:09:06;;;;;;;0.50;0.45;;;;;13.90;99935.00;;;;5128675;27;20428;-78
2021/08/26 05:11:33;;;;;;;4.10;0.80;;;;;13.90;99912.00;;;;5128798;27;20030;-76
2021/08/26 05:13:59;;;;;;;3.85;0.70;;;;;13.90;99953.00;;;;5128901;27;20030;-77
2021/08/26 05:16:26;;;;;;;3.33;0.80;;;;;13.90;99971.00;;;;5128858;27;20027;-78
2021/08/26 05:18:52;;;;;;;3.15;0.60;;;;;13.90;99956.00;;;;5128495;27;20393;-78
2021/08/26 05:21:19;;;;;;;1.85;0.98;;;;;13.90;99957.00;;;;5128104;27;20150;-78
2021/08/26 05:23:46;;;;;;;2.13;1.15;;;;;13.90;99957.00;;;;5128360;27;20027;-78
2021/08/26 05:26:13;;;;;;;3.00;1.83;;;;;14.00;99921.00;;;;5127017;27;20756;-78
2021/08/26 05:28:41;;;;;;;2.58;1.73;;;;;13.90;99904.00;;;;5128193;27;20023;-78
2021/08/26 05:31:08;;;;;;;4.60;1.83;;;;;13.90;99882.00;;;;5128070;27;20026;-77
2021/08/26 05:33:35;;;;;;;3.53;2.20;;;;;13.90;99912.00;;;;5128314;27;20076;-78
2021/08/26 05:36:02;;;;;;;4.07;2.47;;;;;13.90;99894.00;;;;5128188;27;20039;-78
2021/08/26 05:38:28;;;;;;;5.68;2.40;;;;;13.90;99915.00;;;;5128635;27;20030;-79
2021/08/26 05:40:55;;;;;;;5.93;2.78;;;;;13.80;99899.00;;;;5128092;27;20021;-77
2021/08/26 05:43:22;;;;;;;4.95;2.65;;;;;13.80;99903.00;;;;5126576;27;20049;-77
2021/08/26 05:45:48;;;;;;;5.05;3.17;;;;;13.80;99908.00;;;;5127822;27;20019;-78
2021/08/26 05:48:15;;;;;;;6.45;3.30;;;;;13.90;99919.00;;;;5127625;27;20025;-78
2021/08/26 05:50:42;;;;;;;4.35;2.67;;;;;13.80;99920.00;;;;5128372;27;20065;-79
2021/08/26 05:53:08;;;;;;;4.78;2.92;;;;;13.80;99901.00;;;;5127984;27;20062;-78
2021/08/26 05:55:35;;;;;;;3.50;1.40;;;;;13.60;99914.00;;;;5127815;27;20022;-77
2021/08/26 05:58:01;;;;;;;1.85;1.40;;;;;13.50;99911.00;;;;5127612;27;20569;-77
2021/08/26 06:00:28;;;;;;;2.70;0.93;;;;;13.50;99968.00;;;;5127805;27;20641;-78
2021/08/26 06:02:55;;;;;;;2.28;1.20;;;;;13.50;99966.00;;;;5127689;27;20026;-78
2021/08/26 06:05:21;;;;;;;2.40;1.33;;;;;13.50;99937.00;;;;5128164;27;20072;-78
2021/08/26 06:07:48;;;;;;;3.30;1.60;;;;;13.60;99916.00;;;;5127816;27;20047;-78
2021/08/26 06:10:15;;;;;;;7.07;2.15;;;;;13.60;99960.00;;;;5127376;27;20027;-77
2021/08/26 06:12:43;;;;;;;4.85;2.25;;;;;13.70;99966.00;;;;5127440;27;20035;-79
2021/08/26 06:15:11;;;;;;;1.85;1.50;;;;;13.70;100009.00;;;;5127373;27;20686;-78
2021/08/26 06:17:39;;;;;;;1.55;1.10;;;;;13.70;99995.00;;;;5127138;27;20023;-78
2021/08/26 06:20:09;;;;;;;2.97;1.20;;;;;13.70;99979.00;;;;5127308;27;20084;-78
2021/08/26 06:22:36;;;;;;;1.92;1.30;;;;;13.70;99976.00;;;;5127738;27;20032;-78
2021/08/26 06:25:03;;;;;;;2.10;0.70;;;;;13.60;99956.00;;;;5127574;27;20030;-78
2021/08/26 06:27:30;;;;;;;1.02;0.93;;;;;13.70;99982.00;;;;5127391;27;20031;-78
2021/08/26 06:29:56;;;;;;;1.55;1.13;;;;;13.70;99950.00;;;;5127652;27;20023;-78
2021/08/26 06:32:23;;;;;;;1.35;1.05;;;;;13.70;99963.00;;;;5127671;27;20054;-78
2021/08/26 06:34:50;;;;;;;3.45;1.13;;;;;13.70;99964.00;;;;5127502;27;20032;-79
2021/08/26 06:37:16;;;;;;;1.05;0.90;;;;;13.60;99939.00;;;;5127387;27;20069;-79
2021/08/26 06:39:43;;;;;;;3.03;0.77;;;;;13.60;99950.00;;;;5127294;27;20027;-78
2021/08/26 06:42:10;;;;;;;1.10;0.70;;;;;13.50;99955.00;;;;5127440;27;20646;-79
2021/08/26 06:44:36;;;;;;;2.67;1.00;;;;;13.50;99941.00;;;;5127349;27;20027;-79
2021/08/26 06:47:03;;;;;;;3.42;0.80;;;;;13.50;99955.00;;;;5127563;27;20371;-79
2021/08/26 06:49:30;;;;;;;1.25;0.73;;;;;13.50;99978.00;;;;5127586;27;20027;-78
2021/08/26 06:51:56;;;;;;;1.35;0.98;;;;;13.50;99972.00;;;;5127330;27;20027;-78
2021/08/26 06:54:23;;;;;;;3.58;1.10;;;;;13.50;100002.00;;;;5127762;27;20023;-78
2021/08/26 06:56:50;;;;;;;1.88;1.00;;;;;13.50;100004.00;;;;5127772;27;20019;-79
2021/08/26 06:59:16;;;;;;;2.60;1.35;;;;;13.50;100007.00;;;;5127293;27;20033;-79
2021/08/26 07:01:43;;;;;;;2.50;1.27;;;;;13.50;99991.00;;;;5127726;27;20034;-80
2021/08/26 07:04:09;;;;;;;2.67;1.77;;;;;13.50;100000.00;;;;5125698;27;20197;-79
2021/08/26 07:06:36;;;;;;;2.15;1.50;;;;;13.50;100010.00;;;;5137635;27;20034;-78
2021/08/26 07:09:03;;;;;;;2.58;1.67;;;;;13.40;100020.00;;;;5140502;27;20055;-77
2021/08/26 07:11:30;;;;;;;5.60;1.77;;;;;13.40;100028.00;;;;5137027;27;20035;-78
2021/08/26 07:13:57;;;;;;;3.03;1.80;;;;;13.40;100023.00;;;;5131226;27;20068;-79
2021/08/26 07:16:23;;;;;;;3.45;2.00;;;;;13.50;100040.00;;;;5130960;27;20050;-78
2021/08/26 07:18:50;;;;;;;3.38;1.77;;;;;13.50;100047.00;;;;5131124;27;20386;-77
2021/08/26 07:21:16;;;;;;;2.78;1.40;;;;;13.50;100009.00;;;;5131179;27;20517;-79
2021/08/26 07:23:43;;;;;;;2.50;1.30;;;;;13.50;100014.00;;;;5131294;27;20038;-77
2021/08/26 07:26:10;;;;;;;1.98;1.35;;;;;13.40;100014.00;;;;5130600;27;20066;-79
2021/08/26 07:28:36;;;;;;;1.52;1.30;;;;;13.40;99999.00;;;;5130473;27;20039;-78
2021/08/26 07:31:03;;;;;;;3.97;1.20;;;;;13.40;99960.00;;;;5130596;27;20031;-78
2021/08/26 07:33:30;;;;;;;1.27;1.17;;;;;13.40;99910.00;;;;5130967;27;20861;-78
2021/08/26 07:35:56;;;;;;;5.82;1.80;;;;;13.40;99810.00;;;;5130372;27;20096;-78
2021/08/26 07:38:23;;;;;;;3.42;1.25;;;;;13.40;99812.00;;;;5130361;27;20035;-79
2021/08/26 07:40:50;;;;;;;1.75;1.00;;;;;13.20;99835.00;;;;5129958;27;20023;-78
2021/08/26 07:43:16;;;;;;;1.67;0.82;;;;;13.20;99887.00;;;;5130865;27;20027;-80
2021/08/26 07:45:43;;;;;;;0.85;0.73;;;;;13.20;99902.00;;;;5129087;27;20034;-78
2021/08/26 07:48:09;;;;;;;2.33;1.00;;;;;13.20;99913.00;;;;5130425;27;20023;-78
2021/08/26 07:50:36;;;;;;;3.83;0.80;;;;;13.20;99895.00;;;;5130993;27;20031;-79
2021/08/26 07:53:03;;;;;;;3.55;0.80;;;;;13.20;99873.00;;;;5130153;27;20063;-77
2021/08/26 07:55:29;;;;;;;1.60;0.73;;;;;13.20;99869.00;;;;5129778;27;20027;-79
2021/08/26 07:57:56;;;;;;;0.75;0.45;;;;;13.20;99900.00;;;;5129970;27;20478;-78
2021/08/26 08:00:22;;;;;;;0.95;0.50;;;;;13.10;99863.00;;;;5130133;27;20046;-79
2021/08/26 08:02:49;;;;;;;0.60;0.40;;;;;13.10;99873.00;;;;5129612;27;20516;-79
2021/08/26 08:05:16;;;;;;;2.15;0.40;;;;;13.10;99864.00;;;;5130203;27;20539;-78
2021/08/26 08:07:44;;;;;;;0.55;0.30;;;;;13.00;99866.00;;;;5129529;27;20130;-82
2021/08/26 08:10:15;;;;;;;3.42;0.47;;;;;13.00;99854.00;;;;5129941;27;20042;-82
2021/08/26 08:12:43;;;;;;;3.08;0.50;;;;;13.00;99835.00;;;;5130176;27;20038;-79
2021/08/26 08:15:10;;;;;;;3.00;0.73;;;;;13.00;99913.00;;;;5128514;27;20068;-79
2021/08/26 08:17:37;;;;;;;0.38;0.28;;;;;13.10;99981.00;;;;5130089;27;20113;-80
2021/08/26 08:20:06;;;;;;;0.80;0.40;;;;;13.00;100006.00;;;;5129570;27;20049;-80
2021/08/26 08:22:32;;;;;;;2.35;0.30;;;;;13.00;100006.00;;;;5129626;27;20027;-79
2021/08/26 08:24:59;;;;;;;1.63;0.40;;;;;12.90;99963.00;;;;5129605;27;20019;-77
2021/08/26 08:27:26;;;;;;;0.82;0.20;;;;;13.00;100009.00;;;;5129433;27;20405;-80
2021/08/26 08:29:52;;;;;;;1.30;0.30;;;;;12.90;100030.00;;;;5129362;27;20027;-82
2021/08/26 08:32:19;;;;;;;1.40;0.38;;;;;12.90;100007.00;;;;5129519;27;20113;-79
2021/08/26 08:34:45;;;;;;;1.73;0.38;;;;;12.90;100013.00;;;;5128597;27;20023;-80
2021/08/26 08:37:12;;;;;;;2.10;0.50;;;;;12.90;100086.00;;;;5127758;27;20038;-79
2021/08/26 08:39:38;;;;;;;1.65;0.40;;;;;12.90;100129.00;;;;5129722;27;20031;-81
2021/08/26 08:42:05;;;;;;;1.17;0.55;;;;;12.90;100082.00;;;;5129328;27;20137;-80
2021/08/26 08:44:32;;;;;;;1.05;0.50;;;;;12.90;100069.00;;;;5129181;27;20076;-79
2021/08/26 08:46:59;;;;;;;2.17;0.60;;;;;12.90;100048.00;;;;5127555;27;20380;-81
2021/08/26 08:49:26;;;;;;;1.60;0.50;;;;;12.90;100060.00;;;;5128281;27;20027;-79
2021/08/26 08:51:55;;;;;;;1.50;0.50;;;;;12.90;99990.00;;;;5129200;27;20030;-81
2021/08/26 08:54:23;;;;;;;1.25;0.40;;;;;12.90;100084.00;;;;5127600;27;20512;-81
2021/08/26 08:56:50;;;;;;;3.03;0.82;;;;;13.00;100126.00;;;;5128657;27;20386;-79
2021/08/26 08:59:17;;;;;;;3.22;0.60;;;;;12.80;100077.00;;;;5128825;27;20031;-80
2021/08/26 09:01:54;;;;;;;1.65;0.52;;;;;12.80;100119.00;;;;5128558;27;20031;-82
2021/08/26 09:04:21;;;;;;;3.15;0.50;;;;;12.70;100100.00;;;;5127329;27;20035;-81
2021/08/26 09:06:50;;;;;;;1.20;0.60;;;;;12.50;100126.00;;;;5128855;27;20397;-79
2021/08/26 09:09:18;;;;;;;4.32;0.60;;;;;12.50;100105.00;;;;5128923;27;20129;-77
2021/08/26 09:11:56;;;;;;;1.90;0.80;;;;;12.40;100100.00;;;;5128829;27;20427;-78
2021/08/26 09:14:28;;;;;;;4.28;0.77;;;;;12.40;100173.00;;;;5128903;27;20042;-81
2021/08/26 09:16:58;;;;;;;2.45;0.75;;;;;12.40;100148.00;;;;5128554;27;20035;-79
2021/08/26 09:19:33;;;;;;;1.08;0.60;;;;;12.40;100170.00;;;;5128359;27;20102;-79
2021/08/26 09:22:06;;;;;;;1.67;0.85;;;;;12.50;100214.00;;;;5128498;27;20027;-79
2021/08/26 09:24:51;;;;;;;2.10;0.80;;;;;12.50;100255.00;;;;5128368;27;20060;-77
2021/08/26 09:27:38;;;;;;;7.38;0.80;;;;;12.50;100245.00;;;;5126532;27;20031;-78
2021/08/26 09:30:13;;;;;;;4.13;0.88;;;;;12.50;100236.00;;;;5127643;27;20122;-77
2021/08/26 09:32:49;;;;;;;1.38;1.20;;;;;12.40;100254.00;;;;5127856;27;20402;-77
2021/08/26 09:35:36;;;;;;;5.22;0.98;;;;;12.40;100268.00;;;;5128295;27;20554;-78
2021/08/26 09:38:05;;;;;;;4.05;0.70;;;;;12.40;100306.00;;;;5128188;27;20054;-77
2021/08/26 09:40:46;;;;;;;4.43;0.80;;;;;12.50;100316.00;;;;5127951;27;20042;-77
2021/08/26 09:43:12;;;;;;;2.30;0.88;;;;;12.50;100317.00;;;;5128092;27;20504;-79
2021/08/26 09:45:47;;;;;;;5.10;0.80;;;;;12.50;100333.00;;;;5127755;27;20098;-80
2021/08/26 09:48:16;;;;;;;2.38;1.00;;;;;12.50;100338.00;;;;5128012;27;20059;-78
2021/08/26 09:50:54;;;;;;;1.25;0.80;;;;;12.40;100307.00;;;;5126546;27;20034;-76
2021/08/26 09:53:22;;;;;;;3.17;1.52;;;;;12.40;100334.00;;;;5127696;27;20027;-76
2021/08/26 09:55:51;;;;;;;1.50;0.70;;;;;12.40;100335.00;;;;5128139;27;20030;-77
2021/08/26 09:58:22;;;;;;;2.92;0.70;;;;;12.40;100313.00;;;;5127469;27;20031;-78
2021/08/26 10:00:50;;;;;;;0.98;0.57;;;;;12.40;100344.00;;;;5128660;27;20110;-78
2021/08/26 10:03:29;;;;;;;2.15;0.70;;;;;12.50;100363.00;;;;5128317;27;20031;-77
2021/08/26 10:05:56;;;;;;;1.05;0.60;;;;;12.50;100369.00;;;;5127953;27;20057;-77
2021/08/26 10:08:23;;;;;;;2.90;0.70;;;;;12.50;100383.00;;;;5127588;27;20510;-78
2021/08/26 10:10:51;;;;;;;1.23;0.60;;;;;12.40;100392.00;;;;5127461;27;20140;-78
2021/08/26 10:13:19;;;;;;;2.30;1.00;;;;;12.30;100373.00;;;;5127537;27;20490;-80
2021/08/26 10:15:47;;;;;;;1.90;1.70;;;;;12.30;100407.00;;;;5127642;27;20043;-80
2021/08/26 10:18:18;;;;;;;1.55;1.25;;;;;12.30;100398.00;;;;5128012;27;20041;-80
2021/08/26 10:20:45;;;;;;;4.47;0.95;;;;;12.30;100419.00;;;;5127283;27;20070;-80
2021/08/26 10:23:12;;;;;;;3.92;1.67;;;;;12.00;100406.00;;;;5127133;27;20102;-79
2021/08/26 10:25:44;;;;;;;4.18;1.20;;;;;11.80;100434.00;;;;5127708;27;20026;-80
2021/08/26 10:28:12;;;;;;;6.22;2.47;;;;;11.70;100446.00;;;;5127251;27;20075;-82
2021/08/26 10:30:43;;;;;;;4.18;3.03;;;;;11.70;100438.00;;;;5127981;27;20083;-79
2021/08/26 10:33:12;;;;;;;3.10;1.80;;;;;11.70;100451.00;;;;5127484;27;20034;-86
2021/08/26 10:36:09;;;;;;;5.22;1.40;;;;;11.60;100449.00;;;;5127575;27;20502;-78
2021/08/26 10:38:37;;;;;;;3.85;1.73;;;;;11.60;100467.00;;;;5110472;27;20406;-80
2021/08/26 10:41:18;;;;;;;5.40;1.80;;;;;11.40;100479.00;;;;5130501;27;20031;-78
2021/08/26 10:43:45;;;;;;;;;;;;;11.50;100503.00;;;;5131828;27;20038;-77
2021/08/26 10:46:13;;;;;;;7.60;1.92;;;;;11.40;100518.00;;;;5130179;27;19916;-83
2021/08/26 10:48:40;;;;;;;4.30;1.77;;;;;11.30;100504.00;;;;5130989;27;20031;-82
2021/08/26 10:51:15;;;;;;;6.20;2.20;;;;;11.20;100512.00;;;;5129653;27;20035;-77
2021/08/26 10:53:47;;;;;;;4.30;2.05;;;;;11.20;100509.00;;;;5131479;27;20072;-76
2021/08/26 10:56:22;;;;;;;10.20;2.80;;;;;11.00;100544.00;;;;5131641;27;20035;-84
2021/08/26 10:58:51;;;;;;;7.47;2.35;;;;;11.00;100555.00;;;;5130659;27;20058;-82
2021/08/26 11:01:43;;;;;;;9.30;2.70;;;;;11.00;100582.00;;;;5131186;27;20474;-83
2021/08/26 11:04:29;;;;;;;8.25;2.72;;;;;11.10;100574.00;;;;5121901;27;20084;-79
2021/08/26 11:06:57;;;;;;;6.15;2.42;;;;;11.10;100561.00;;;;5129306;27;20031;-78
2021/08/26 11:09:28;;;;;;;6.10;2.42;;;;;11.20;100588.00;;;;5131088;27;20455;-79
2021/08/26 11:12:03;;;;;;;15.20;2.47;;;;;11.20;100557.00;;;;5131439;27;20049;-80
2021/08/26 11:14:33;;;;;;;8.82;3.00;;;;;11.20;100552.00;;;;5130811;27;20027;-80
2021/08/26 11:17:03;;;;;;;5.70;2.47;;;;;11.10;100582.00;;;;5131097;27;20084;-79
2021/08/26 11:19:37;;;;;;;7.60;2.17;;;;;11.20;100547.00;;;;5130821;27;20050;-82
2021/08/26 11:22:10;;;;;;;6.63;2.55;;;;;11.30;100551.00;;;;5130931;27;20031;-84
2021/08/26 11:24:36;;;;;;;8.30;2.55;;;;;11.30;100593.00;;;;5130831;27;20039;-81
2021/08/26 11:27:26;;;;;;;8.32;2.60;;;;;11.50;100565.00;;;;5130441;27;20374;-80
2021/08/26 11:29:54;;;;;;;9.90;2.20;;;;;11.40;100563.00;;;;5130810;27;20565;-80
2021/08/26 11:32:24;;;;;;;9.85;2.50;;;;;11.60;100557.00;;;;5130382;27;20031;-80
2021/08/26 11:34:57;;;;;;;11.75;3.20;;;;;11.60;100535.00;;;;5130827;27;20101;-82
2021/08/26 11:37:34;;;;;;;10.68;2.25;;;;;11.60;100527.00;;;;5128989;27;20413;-80
2021/08/26 11:40:12;;;;;;;12.98;2.20;;;;;11.70;100537.00;;;;5129895;27;20050;-81
2021/08/26 11:42:47;;;;;;;7.25;2.40;;;;;11.70;100548.00;;;;5130264;27;20564;-79
2021/08/26 11:45:25;;;;;;;11.25;2.58;;;;;11.70;100536.00;;;;5130370;27;20118;-79
2021/08/26 11:48:00;;;;;;;8.10;2.20;;;;;11.70;100527.00;;;;5130208;27;20023;-79
2021/08/26 11:50:33;;;;;;;9.18;2.85;;;;;11.70;100540.00;;;;5130883;27;20368;-80
2021/08/26 11:53:08;;;;;;;6.85;2.58;;;;;11.80;100545.00;;;;5129848;27;20870;-80
2021/08/26 11:55:36;;;;;;;12.88;3.45;;;;;11.90;100549.00;;;;5130098;27;20027;-80
2021/08/26 11:58:05;;;;;;;12.95;3.33;;;;;11.90;100537.00;;;;5129762;27;20122;-80
2021/08/26 12:00:33;;;;;;;9.85;3.25;;;;;12.00;100539.00;;;;5130286;27;20035;-80
2021/08/26 12:03:01;;;;;;;9.82;3.22;;;;;12.10;100528.00;;;;5128778;27;20446;-80
2021/08/26 12:05:29;;;;;;;9.77;3.60;;;;;12.20;100536.00;;;;5129901;27;20037;-80
2021/08/26 12:07:57;;;;;;;10.93;4.50;;;;;12.20;100561.00;;;;5129869;27;20058;-80
2021/08/26 12:10:32;;;;;;;17.65;8.77;;;;;12.30;100573.00;;;;5129665;27;20035;-81
2021/08/26 12:13:08;;;;;;;14.38;5.97;;;;;12.20;100538.00;;;;5130122;27;20041;-80
2021/08/26 12:15:47;;;;;;;8.90;2.60;;;;;12.20;100550.00;;;;5129932;27;20023;-80
2021/08/26 12:18:18;;;;;;;14.52;3.45;;;;;12.40;100551.00;;;;5130327;27;20109;-80
2021/08/26 12:20:48;;;;;;;9.82;3.30;;;;;12.60;100534.00;;;;5130005;27;20118;-80
2021/08/26 12:23:28;;;;;;;10.57;2.72;;;;;12.60;100512.00;;;;5129513;27;20034;-80
2021/08/26 12:26:10;;;;;;;7.37;2.70;;;;;12.80;100517.00;;;;5129193;27;20030;-80